createdAt,value
2023-04-21T00:01:29.877Z,35.63
2023-04-21T00:03:56.566Z,42.15
2023-04-21T00:06:23.461Z,31.08
2023-04-21T00:08:50.882Z,31.42
2023-04-21T00:11:17.786Z,29.85
2023-04-21T00:13:44.656Z,41.65
2023-04-21T00:16:11.654Z,43.60
2023-04-21T00:18:38.295Z,33.78
2023-04-21T00:21:05.321Z,35.53
2023-04-21T00:23:31.797Z,35.92
2023-04-21T00:25:58.310Z,35.35
2023-04-21T00:28:24.961Z,29.90
2023-04-21T00:30:51.485Z,31.95
2023-04-21T00:33:17.920Z,33.65
2023-04-21T00:35:44.480Z,36.55
2023-04-21T00:38:10.928Z,36.67
2023-04-21T00:40:37.850Z,33.28
2023-04-21T00:43:07.604Z,33.13
2023-04-21T00:45:34.154Z,31.70
2023-04-21T00:48:00.643Z,35.58
2023-04-21T00:50:27.153Z,35.97
2023-04-21T00:52:54.213Z,33.22
2023-04-21T00:55:21.636Z,33.40
2023-04-21T00:57:49.148Z,32.88
2023-04-21T01:00:16.572Z,29.17
2023-04-21T01:02:45.642Z,30.25
2023-04-21T01:05:12.725Z,33.92
2023-04-21T01:07:39.388Z,38.03
2023-04-21T01:10:06.657Z,35.17
2023-04-21T01:12:33.247Z,38.65
2023-04-21T01:14:59.664Z,37.47
2023-04-21T01:17:26.902Z,32.45
2023-04-21T01:19:56.287Z,33.28
2023-04-21T01:22:22.785Z,35.77
2023-04-21T01:24:49.489Z,30.95
2023-04-21T01:27:18.789Z,34.42
2023-04-21T01:29:47.458Z,33.17
2023-04-21T01:32:19.899Z,33.42
2023-04-21T01:34:46.933Z,38.65
2023-04-21T01:37:16.413Z,29.90
2023-04-21T01:39:45.690Z,34.08
2023-04-21T01:42:12.766Z,36.40
2023-04-21T01:44:39.976Z,34.03
2023-04-21T01:47:07.341Z,30.40
2023-04-21T01:49:33.884Z,38.20
2023-04-21T01:52:00.465Z,33.55
2023-04-21T01:54:26.995Z,31.98
2023-04-21T01:56:53.658Z,32.65
2023-04-21T01:59:20.225Z,35.72
2023-04-21T02:01:47.028Z,34.13
2023-04-21T02:04:13.724Z,33.25
2023-04-21T02:06:40.517Z,36.28
2023-04-21T02:09:07.180Z,35.67
2023-04-21T02:11:33.657Z,40.15
2023-04-21T02:14:00.222Z,34.30
2023-04-21T02:16:26.754Z,32.78
2023-04-21T02:18:54.450Z,33.92
2023-04-21T02:21:21.692Z,37.90
2023-04-21T02:23:48.422Z,31.45
2023-04-21T02:26:15.110Z,39.35
2023-04-21T02:28:41.628Z,32.20
2023-04-21T02:31:08.492Z,37.55
2023-04-21T02:33:35.110Z,32.63
2023-04-21T02:36:01.505Z,33.50
2023-04-21T02:38:28.040Z,31.20
2023-04-21T02:40:54.596Z,33.97
2023-04-21T02:43:21.073Z,29.65
2023-04-21T02:45:47.498Z,32.38
2023-04-21T02:53:21.155Z,33.80
2023-04-21T02:55:47.824Z,29.63
2023-04-21T02:58:14.450Z,30.48
2023-04-21T03:00:41.203Z,31.95
2023-04-21T03:03:07.899Z,32.15
2023-04-21T03:05:34.549Z,37.08
2023-04-21T03:08:00.999Z,31.33
2023-04-21T03:10:27.559Z,34.50
2023-04-21T03:12:54.054Z,32.95
2023-04-21T03:15:20.976Z,32.72
2023-04-21T03:17:47.498Z,32.92
2023-04-21T03:20:13.974Z,29.80
2023-04-21T03:22:40.427Z,37.58
2023-04-21T03:25:07.576Z,33.40
2023-04-21T03:27:34.948Z,33.50
2023-04-21T03:30:01.735Z,31.60
2023-04-21T03:32:28.424Z,31.13
2023-04-21T03:34:54.994Z,25.90
2023-04-21T03:37:21.489Z,29.02
2023-04-21T03:39:47.970Z,32.63
2023-04-21T03:42:14.461Z,28.90
2023-04-21T03:44:41.290Z,31.00
2023-04-21T03:47:07.733Z,30.92
2023-04-21T03:49:35.219Z,28.13
2023-04-21T03:52:01.819Z,34.53
2023-04-21T03:54:28.310Z,29.45
2023-04-21T03:56:54.834Z,30.55
2023-04-21T03:59:21.457Z,31.25
2023-04-21T04:01:48.076Z,33.92
2023-04-21T04:04:14.890Z,28.88
2023-04-21T04:06:41.940Z,31.77
2023-04-21T04:09:09.046Z,32.83
2023-04-21T04:11:35.631Z,35.65
2023-04-21T04:14:02.108Z,30.10
2023-04-21T04:16:29.073Z,28.70
2023-04-21T04:18:55.852Z,37.72
2023-04-21T04:21:22.606Z,27.70
2023-04-21T04:23:52.455Z,31.35
2023-04-21T04:26:19.978Z,30.20
2023-04-21T04:28:46.467Z,28.58
2023-04-21T04:31:13.731Z,24.52
2023-04-21T04:33:46.365Z,26.80
2023-04-21T04:36:12.999Z,30.98
2023-04-21T04:38:40.263Z,33.28
2023-04-21T04:41:08.926Z,28.92
2023-04-21T04:43:39.071Z,29.58
2023-04-21T04:46:06.374Z,33.72
2023-04-21T04:48:32.906Z,33.63
2023-04-21T04:50:59.327Z,28.17
2023-04-21T04:53:28.505Z,33.95
2023-04-21T04:55:55.073Z,33.35
2023-04-21T04:58:22.133Z,32.63
2023-04-21T05:00:48.692Z,30.65
2023-04-21T05:03:15.334Z,27.90
2023-04-21T05:05:41.900Z,27.83
2023-04-21T05:08:08.514Z,29.67
2023-04-21T05:10:35.357Z,30.45
2023-04-21T05:13:01.873Z,32.90
2023-04-21T05:15:28.337Z,33.53
2023-04-21T05:17:55.009Z,32.78
2023-04-21T05:20:22.098Z,30.60
2023-04-21T05:22:48.608Z,29.17
2023-04-21T05:25:15.841Z,33.53
2023-04-21T05:27:43.285Z,31.48
2023-04-21T05:30:10.413Z,29.33
2023-04-21T05:32:37.094Z,31.08
2023-04-21T05:35:04.619Z,32.72
2023-04-21T05:37:31.178Z,26.42
2023-04-21T05:39:57.628Z,24.02
2023-04-21T05:42:24.087Z,27.60
2023-04-21T05:44:50.867Z,23.05
2023-04-21T05:47:17.450Z,25.90
2023-04-21T05:49:50.106Z,26.42
2023-04-21T05:52:17.769Z,28.15
2023-04-21T05:54:44.570Z,28.58
2023-04-21T05:57:11.210Z,27.80
2023-04-21T05:59:37.721Z,24.55
2023-04-21T06:02:04.450Z,24.08
2023-04-21T06:04:31.086Z,31.70
2023-04-21T06:06:57.659Z,27.35
2023-04-21T06:09:24.086Z,27.70
2023-04-21T06:11:50.927Z,25.27
2023-04-21T06:14:17.593Z,25.58
2023-04-21T06:16:44.265Z,26.42
2023-04-21T06:19:10.802Z,32.47
2023-04-21T06:21:37.739Z,27.38
2023-04-21T06:24:04.575Z,23.08
2023-04-21T06:26:31.044Z,25.90
2023-04-21T06:28:57.528Z,23.63
2023-04-21T06:31:23.963Z,27.38
2023-04-21T06:33:50.346Z,28.10
2023-04-21T06:36:18.068Z,22.13
2023-04-21T06:38:45.276Z,25.50
2023-04-21T06:41:11.679Z,24.67
2023-04-21T06:43:38.163Z,23.00
2023-04-21T06:46:04.717Z,23.58
2023-04-21T06:48:31.292Z,27.52
2023-04-21T06:50:57.813Z,23.38
2023-04-21T06:53:27.524Z,25.77
2023-04-21T06:55:54.033Z,24.95
2023-04-21T06:58:21.464Z,24.48
2023-04-21T07:00:48.136Z,26.42
2023-04-21T07:03:14.863Z,25.67
2023-04-21T07:05:41.350Z,28.40
2023-04-21T07:08:07.811Z,20.20
2023-04-21T07:10:34.207Z,20.75
2023-04-21T07:13:00.752Z,24.65
2023-04-21T07:15:27.162Z,30.35
2023-04-21T07:17:53.649Z,23.05
2023-04-21T07:20:20.627Z,22.77
2023-04-21T07:22:47.065Z,20.08
2023-04-21T07:25:13.541Z,21.88
2023-04-21T07:27:40.147Z,20.92
2023-04-21T07:30:07.218Z,27.20
2023-04-21T07:32:34.928Z,25.80
2023-04-21T07:35:02.044Z,22.55
2023-04-21T07:37:28.732Z,23.65
2023-04-21T07:39:55.278Z,21.08
2023-04-21T07:42:22.402Z,23.98
2023-04-21T07:44:49.137Z,23.38
2023-04-21T07:47:15.680Z,22.33
2023-04-21T07:49:42.083Z,19.75
2023-04-21T07:52:08.827Z,20.75
2023-04-21T07:54:35.690Z,21.83
2023-04-21T07:57:02.928Z,22.55
2023-04-21T07:59:29.646Z,24.98
2023-04-21T08:01:56.574Z,20.42
2023-04-21T08:04:23.380Z,30.30
2023-04-21T08:06:50.357Z,21.00
2023-04-21T08:09:17.116Z,24.25
2023-04-21T08:11:43.710Z,22.05
2023-04-21T08:14:11.831Z,19.65
2023-04-21T08:16:39.003Z,21.27
2023-04-21T08:19:06.753Z,22.40
2023-04-21T08:21:43.158Z,21.00
2023-04-21T08:24:09.586Z,18.75
2023-04-21T08:26:36.270Z,21.40
2023-04-21T08:29:04.397Z,22.20
2023-04-21T08:31:33.241Z,21.73
2023-04-21T08:34:02.978Z,21.70
2023-04-21T08:36:30.536Z,23.75
2023-04-21T08:38:57.839Z,21.30
2023-04-21T08:41:48.615Z,19.60
2023-04-21T08:44:15.824Z,20.85
2023-04-21T08:46:44.833Z,18.88
2023-04-21T08:49:12.863Z,25.80
2023-04-21T08:51:40.218Z,17.35
2023-04-21T08:54:08.110Z,17.60
2023-04-21T08:56:34.818Z,21.60
2023-04-21T08:59:01.297Z,22.42
2023-04-21T09:01:27.897Z,18.52
2023-04-21T09:03:54.543Z,23.00
2023-04-21T09:06:21.485Z,18.17
2023-04-21T09:08:57.978Z,23.67
2023-04-21T09:11:25.116Z,18.73
2023-04-21T09:13:51.802Z,19.42
2023-04-21T09:16:21.148Z,22.88
2023-04-21T09:18:48.007Z,20.88
2023-04-21T09:21:16.837Z,21.77
2023-04-21T09:23:51.385Z,23.83
2023-04-21T09:26:19.513Z,21.33
2023-04-21T09:28:48.062Z,20.08
2023-04-21T09:31:16.964Z,20.77
2023-04-21T09:34:00.160Z,21.60
2023-04-21T09:36:29.602Z,20.48
2023-04-21T09:41:33.884Z,18.15
2023-04-21T09:44:01.588Z,17.77
2023-04-21T09:46:35.796Z,17.75
2023-04-21T09:49:03.650Z,16.00
2023-04-21T09:51:49.112Z,17.38
2023-04-21T09:56:53.789Z,18.17
2023-04-21T09:59:25.337Z,16.42
2023-04-21T10:01:53.842Z,21.00
2023-04-21T10:04:22.715Z,18.50
2023-04-21T10:06:50.582Z,17.48
2023-04-21T10:09:20.380Z,17.58
2023-04-21T10:11:47.009Z,22.30
2023-04-21T10:14:13.764Z,17.50
2023-04-21T10:16:40.539Z,21.42
2023-04-21T10:19:29.322Z,16.20
2023-04-21T10:21:57.487Z,18.92
2023-04-21T10:24:23.992Z,19.15
2023-04-21T10:26:54.052Z,17.17
2023-04-21T10:29:47.820Z,17.92
2023-04-21T10:32:46.397Z,18.38
2023-04-21T10:35:22.181Z,23.77
2023-04-21T10:37:49.985Z,16.38
2023-04-21T10:40:43.851Z,17.13
2023-04-21T10:43:42.480Z,17.20
2023-04-21T10:46:37.729Z,17.23
2023-04-21T10:49:06.178Z,21.88
2023-04-21T10:51:35.615Z,19.13
2023-04-21T10:54:05.104Z,17.27
2023-04-21T10:56:32.921Z,17.88
2023-04-21T10:59:00.874Z,17.73
2023-04-21T11:01:27.461Z,17.73
2023-04-21T11:03:56.581Z,17.63
2023-04-21T11:06:23.188Z,17.20
2023-04-21T11:08:56.537Z,15.32
2023-04-21T11:11:24.163Z,19.65
2023-04-21T11:13:53.100Z,17.02
2023-04-21T11:16:20.647Z,17.00
2023-04-21T11:18:48.235Z,18.25
2023-04-21T11:21:18.215Z,16.98
2023-04-21T11:23:53.654Z,18.45
2023-04-21T11:26:38.711Z,16.70
2023-04-21T11:29:07.338Z,18.73
2023-04-21T11:31:35.140Z,17.50
2023-04-21T11:34:02.679Z,17.08
2023-04-21T11:36:29.418Z,29.52
2023-04-21T11:38:56.015Z,17.67
2023-04-21T11:41:23.713Z,21.48
2023-04-21T11:43:51.560Z,17.77
2023-04-21T11:46:19.173Z,17.88
2023-04-21T11:48:45.742Z,16.42
2023-04-21T11:51:16.577Z,16.92
2023-04-21T11:53:43.152Z,16.52
2023-04-21T11:56:11.289Z,17.13
2023-04-21T11:58:39.655Z,17.45
2023-04-21T12:01:09.597Z,17.08
2023-04-21T12:03:36.447Z,18.05
2023-04-21T12:06:03.319Z,19.17
2023-04-21T12:08:31.772Z,18.63
2023-04-21T12:10:59.304Z,19.58
2023-04-21T12:13:30.749Z,18.98
2023-04-21T12:15:57.266Z,21.75
2023-04-21T12:18:27.928Z,23.80
2023-04-21T12:20:55.070Z,19.83
2023-04-21T12:23:21.454Z,19.10
2023-04-21T12:25:47.952Z,22.52
2023-04-21T12:28:16.781Z,20.45
2023-04-21T12:30:43.740Z,20.83
2023-04-21T12:33:11.571Z,19.58
2023-04-21T12:35:38.968Z,18.05
2023-04-21T12:38:05.452Z,20.48
2023-04-21T12:40:32.699Z,19.40
2023-04-21T12:42:59.103Z,16.02
2023-04-21T12:45:25.708Z,17.10
2023-04-21T12:47:52.328Z,18.58
2023-04-21T12:50:18.833Z,15.48
2023-04-21T12:52:45.714Z,16.20
2023-04-21T12:55:13.396Z,15.48
2023-04-21T12:57:39.961Z,17.70
2023-04-21T13:00:08.510Z,18.20
2023-04-21T13:02:37.158Z,15.25
2023-04-21T13:05:05.006Z,15.50
2023-04-21T13:07:31.503Z,17.17
2023-04-21T13:09:57.976Z,19.17
2023-04-21T13:12:24.512Z,16.42
2023-04-21T13:14:51.259Z,19.90
2023-04-21T13:17:17.772Z,20.48
2023-04-21T13:19:44.415Z,17.05
2023-04-21T13:22:10.924Z,17.55
2023-04-21T13:24:37.498Z,16.63
2023-04-21T13:27:03.940Z,16.77
2023-04-21T13:29:34.009Z,17.95
2023-04-21T13:32:05.019Z,15.13
2023-04-21T13:34:33.479Z,18.55
2023-04-21T13:37:01.451Z,17.27
2023-04-21T13:39:27.910Z,19.98
2023-04-21T13:41:54.475Z,15.18
2023-04-21T13:44:24.103Z,15.52
2023-04-21T13:46:53.042Z,17.35
2023-04-21T13:49:20.881Z,15.30
2023-04-21T13:51:47.391Z,24.85
2023-04-21T13:54:13.843Z,17.23
2023-04-21T13:56:40.438Z,19.00
2023-04-21T13:59:06.968Z,15.70
2023-04-21T14:01:33.386Z,17.58
2023-04-21T14:04:00.011Z,18.50
2023-04-21T14:06:26.798Z,16.05
2023-04-21T14:08:53.585Z,16.70
2023-04-21T14:11:20.903Z,14.48
2023-04-21T14:13:59.829Z,17.15
2023-04-21T14:16:34.105Z,15.93
2023-04-21T14:19:00.644Z,16.27
2023-04-21T14:21:27.224Z,18.40
2023-04-21T14:23:53.715Z,15.63
2023-04-21T14:26:21.153Z,18.75
2023-04-21T14:28:47.751Z,15.15
2023-04-21T14:31:14.271Z,17.73
2023-04-21T14:33:41.312Z,16.98
2023-04-21T14:36:07.941Z,15.23
2023-04-21T14:38:34.419Z,18.08
2023-04-21T14:41:01.009Z,17.02
2023-04-21T14:43:27.673Z,15.48
2023-04-21T14:45:54.337Z,17.42
2023-04-21T14:48:21.336Z,20.77
2023-04-21T14:50:47.949Z,18.92
2023-04-21T14:53:14.639Z,23.17
2023-04-21T14:55:41.158Z,18.20
2023-04-21T14:58:07.670Z,15.15
2023-04-21T15:00:36.322Z,17.13
2023-04-21T15:03:03.216Z,14.98
2023-04-21T15:05:30.112Z,15.68
2023-04-21T15:07:56.649Z,17.30
2023-04-21T15:10:23.216Z,15.60
2023-04-21T15:12:50.079Z,18.67
2023-04-21T15:15:16.539Z,18.20
2023-04-21T15:17:42.966Z,18.98
2023-04-21T15:20:10.252Z,17.13
2023-04-21T15:22:37.087Z,17.55
2023-04-21T15:25:03.832Z,16.00
2023-04-21T15:27:30.262Z,15.73
2023-04-21T15:29:56.846Z,16.38
2023-04-21T15:32:23.387Z,16.20
2023-04-21T15:34:50.002Z,19.67
2023-04-21T15:37:22.321Z,14.90
2023-04-21T15:39:52.270Z,17.02
2023-04-21T15:42:18.904Z,17.35
2023-04-21T15:44:47.095Z,16.20
2023-04-21T15:47:16.445Z,15.32
2023-04-21T15:49:43.127Z,17.17
2023-04-21T15:52:09.722Z,15.23
2023-04-21T15:54:36.602Z,17.88
2023-04-21T15:57:03.867Z,16.77
2023-04-21T15:59:30.879Z,19.63
2023-04-21T16:01:57.867Z,20.80
2023-04-21T16:04:24.682Z,16.42
2023-04-21T16:06:51.998Z,14.77
2023-04-21T16:09:20.163Z,20.67
2023-04-21T16:11:50.095Z,16.10
2023-04-21T16:16:44.885Z,18.42
2023-04-21T16:19:11.542Z,18.00
2023-04-21T16:21:40.510Z,17.17
2023-04-21T16:24:08.025Z,14.73
2023-04-21T16:26:36.370Z,17.42
2023-04-21T16:29:02.923Z,15.93
2023-04-21T16:31:29.410Z,15.43
2023-04-21T16:33:59.823Z,17.75
2023-04-21T16:36:28.356Z,15.00
2023-04-21T16:38:58.173Z,19.73
2023-04-21T16:41:25.049Z,22.75
2023-04-21T16:43:51.535Z,14.73
2023-04-21T16:46:18.345Z,16.48
2023-04-21T16:48:44.959Z,16.67
2023-04-21T16:51:11.619Z,16.17
2023-04-21T16:53:39.684Z,15.23
2023-04-21T16:56:06.973Z,15.73
2023-04-21T16:58:33.543Z,19.05
2023-04-21T17:00:59.993Z,15.88
2023-04-21T17:03:28.699Z,16.00
2023-04-21T17:05:55.530Z,15.43
2023-04-21T17:08:22.052Z,16.05
2023-04-21T17:10:48.650Z,18.80
2023-04-21T17:13:15.131Z,15.00
2023-04-21T17:15:42.044Z,18.08
2023-04-21T17:18:08.562Z,17.90
2023-04-21T17:20:35.099Z,18.00
2023-04-21T17:23:01.537Z,19.88
2023-04-21T17:25:28.369Z,14.43
2023-04-21T17:27:54.858Z,17.67
2023-04-21T17:30:23.341Z,19.20
2023-04-21T17:32:55.135Z,17.25
2023-04-21T17:35:27.405Z,18.50
2023-04-21T17:37:53.841Z,15.80
2023-04-21T17:40:20.922Z,17.23
2023-04-21T17:42:47.748Z,15.23
2023-04-21T17:45:14.255Z,15.93
2023-04-21T17:47:41.276Z,16.05
2023-04-21T17:50:09.849Z,17.50
2023-04-21T17:52:36.369Z,16.60
2023-04-21T17:55:02.960Z,22.30
2023-04-21T17:57:29.628Z,23.63
2023-04-21T17:59:56.209Z,18.73
2023-04-21T18:02:23.176Z,17.02
2023-04-21T18:04:50.096Z,15.45
2023-04-21T18:07:16.706Z,18.92
2023-04-21T18:09:43.496Z,17.05
2023-04-21T18:12:09.989Z,28.38
2023-04-21T18:14:37.005Z,16.52
2023-04-21T18:17:03.670Z,18.00
2023-04-21T18:19:30.181Z,17.38
2023-04-21T18:21:57.079Z,17.52
2023-04-21T18:24:23.527Z,17.70
2023-04-21T18:26:51.196Z,19.38
2023-04-21T18:29:19.372Z,20.92
2023-04-21T18:31:45.886Z,21.88
2023-04-21T18:34:14.210Z,18.45
2023-04-21T18:36:42.963Z,18.55
2023-04-21T18:39:10.629Z,17.23
2023-04-21T18:41:40.578Z,24.02
2023-04-21T18:44:07.028Z,25.95
2023-04-21T18:46:33.823Z,19.25
2023-04-21T18:49:00.438Z,17.60
2023-04-21T18:51:27.658Z,18.88
2023-04-21T18:53:54.265Z,19.10
2023-04-21T18:56:20.843Z,19.45
2023-04-21T18:58:47.327Z,18.98
2023-04-21T19:01:13.810Z,16.58
2023-04-21T19:03:40.610Z,20.75
2023-04-21T19:06:07.190Z,17.25
2023-04-21T19:08:41.902Z,18.20
2023-04-21T19:11:11.487Z,19.08
2023-04-21T19:13:38.882Z,22.13
2023-04-21T19:16:05.523Z,20.35
2023-04-21T19:18:32.437Z,18.15
2023-04-21T19:20:59.118Z,23.15
2023-04-21T19:23:25.663Z,19.88
2023-04-21T19:25:54.667Z,17.73
2023-04-21T19:28:21.613Z,17.75
2023-04-21T19:30:48.782Z,20.75
2023-04-21T19:33:15.973Z,19.75
2023-04-21T19:35:43.169Z,19.55
2023-04-21T19:38:10.048Z,24.90
2023-04-21T19:40:36.576Z,20.95
2023-04-21T19:43:04.504Z,20.55
2023-04-21T19:45:31.065Z,17.52
2023-04-21T19:47:57.749Z,17.15
2023-04-21T19:50:24.362Z,22.42
2023-04-21T19:52:51.337Z,21.15
2023-04-21T19:55:17.981Z,22.75
2023-04-21T19:57:44.556Z,18.08
2023-04-21T20:00:11.890Z,18.63
2023-04-21T20:02:38.618Z,19.13
2023-04-21T20:05:06.339Z,19.38
2023-04-21T20:07:33.351Z,18.83
2023-04-21T20:09:59.897Z,18.20
2023-04-21T20:12:26.477Z,22.38
2023-04-21T20:14:59.880Z,16.95
2023-04-21T20:17:27.406Z,20.20
2023-04-21T20:19:55.137Z,17.65
2023-04-21T20:22:21.822Z,18.92
2023-04-21T20:24:48.314Z,20.33
2023-04-21T20:27:14.870Z,21.30
2023-04-21T20:29:42.117Z,20.88
2023-04-21T20:32:08.781Z,19.20
2023-04-21T20:34:36.216Z,15.43
2023-04-21T20:37:04.198Z,19.15
2023-04-21T20:39:30.715Z,16.73
2023-04-21T20:42:12.695Z,15.32
2023-04-21T20:44:42.269Z,15.35
2023-04-21T20:47:10.702Z,16.38
2023-04-21T20:49:37.875Z,15.20
2023-04-21T20:52:04.611Z,14.40
2023-04-21T20:54:31.079Z,16.70
2023-04-21T20:56:57.606Z,15.35
2023-04-21T20:59:26.836Z,15.13
2023-04-21T21:01:53.389Z,15.15
2023-04-21T21:04:19.943Z,14.93
2023-04-21T21:06:46.646Z,17.73
2023-04-21T21:09:13.206Z,15.55
2023-04-21T21:11:39.700Z,13.68
2023-04-21T21:14:06.433Z,14.38
2023-04-21T21:16:33.370Z,15.35
2023-04-21T21:18:59.935Z,15.23
2023-04-21T21:21:27.172Z,14.35
2023-04-21T21:23:53.700Z,16.83
2023-04-21T21:26:20.506Z,14.38
2023-04-21T21:28:47.174Z,14.65
2023-04-21T21:31:13.643Z,16.58
2023-04-21T21:33:42.071Z,14.30
2023-04-21T21:36:12.262Z,14.75
2023-04-21T21:38:38.832Z,14.23
2023-04-21T21:41:05.666Z,14.43
2023-04-21T21:43:33.191Z,15.57
2023-04-21T21:46:00.002Z,14.85
2023-04-21T21:48:26.886Z,14.95
2023-04-21T21:50:53.354Z,14.38
2023-04-21T21:53:19.782Z,13.57
2023-04-21T21:55:46.389Z,14.30
2023-04-21T21:58:13.074Z,14.80
2023-04-21T22:00:40.019Z,17.65
2023-04-21T22:03:06.664Z,13.85
2023-04-21T22:05:33.237Z,14.27
2023-04-21T22:07:59.689Z,13.75
2023-04-21T22:10:26.373Z,14.30
2023-04-21T22:12:54.059Z,13.57
2023-04-21T22:15:21.682Z,13.75
2023-04-21T22:17:48.270Z,14.23
2023-04-21T22:20:15.221Z,14.52
2023-04-21T22:22:41.928Z,14.88
2023-04-21T22:25:08.873Z,15.65
2023-04-21T22:27:35.479Z,14.07
2023-04-21T22:30:03.295Z,13.60
2023-04-21T22:32:32.104Z,13.60
2023-04-21T22:34:59.694Z,12.45
2023-04-21T22:37:26.113Z,14.20
2023-04-21T22:39:52.715Z,13.57
2023-04-21T22:42:19.272Z,19.42
2023-04-21T22:44:45.988Z,13.50
2023-04-21T22:47:12.828Z,13.85
2023-04-21T22:49:39.565Z,12.98
2023-04-21T22:52:06.689Z,14.27
2023-04-21T22:54:33.134Z,13.70
2023-04-21T22:56:59.705Z,13.93
2023-04-21T22:59:26.797Z,15.35
2023-04-21T23:01:53.259Z,13.40
2023-04-21T23:04:19.789Z,13.43
2023-04-21T23:06:46.236Z,14.93
2023-04-21T23:09:12.676Z,12.95
2023-04-21T23:11:39.249Z,16.23
2023-04-21T23:14:05.659Z,13.18
2023-04-21T23:16:34.458Z,14.43
2023-04-21T23:19:00.991Z,13.05
2023-04-21T23:21:27.404Z,13.15
2023-04-21T23:23:53.951Z,12.95
2023-04-21T23:26:21.566Z,13.88
2023-04-21T23:28:47.974Z,13.32
2023-04-21T23:31:14.374Z,16.35
2023-04-21T23:33:40.794Z,15.52
2023-04-21T23:36:07.494Z,15.85
2023-04-21T23:38:37.027Z,12.70
2023-04-21T23:41:04.238Z,12.75
2023-04-21T23:43:30.816Z,13.23
2023-04-21T23:45:57.282Z,15.15
2023-04-21T23:48:23.782Z,12.98
2023-04-21T23:50:50.367Z,13.25
2023-04-21T23:53:49.423Z,13.13
2023-04-21T23:56:16.456Z,12.50
2023-04-21T23:58:42.933Z,12.35
